sensor_id;sensor_type;location;lat;lon;timestamp;pressure;altitude;pressure_sealevel;temperature;humidity
55191;BME280;41070;50.360;18.742;2024-03-07T00:00:09;99215.83;;;2.47;100.00
55191;BME280;41070;50.360;18.742;2024-03-07T00:03:01;99214.39;;;2.47;100.00
55191;BME280;41070;50.360;18.742;2024-03-07T00:05:33;99216.58;;;2.45;100.00
55191;BME280;41070;50.360;18.742;2024-03-07T00:08:01;99216.47;;;2.45;100.00
55191;BME280;41070;50.360;18.742;2024-03-07T00:10:27;99217.89;;;2.47;100.00
55191;BME280;41070;50.360;18.742;2024-03-07T00:12:54;99218.26;;;2.48;100.00
55191;BME280;41070;50.360;18.742;2024-03-07T00:15:20;99219.30;;;2.49;100.00
55191;BME280;41070;50.360;18.742;2024-03-07T00:17:47;99221.30;;;2.49;100.00
55191;BME280;41070;50.360;18.742;2024-03-07T00:20:14;99217.06;;;2.50;100.00
55191;BME280;41070;50.360;18.742;2024-03-07T00:22:41;99217.95;;;2.52;100.00
55191;BME280;41070;50.360;18.742;2024-03-07T00:25:07;99220.02;;;2.51;100.00
55191;BME280;41070;50.360;18.742;2024-03-07T00:27:35;99216.98;;;2.48;100.00
55191;BME280;41070;50.360;18.742;2024-03-07T00:30:21;99221.35;;;2.49;100.00
55191;BME280;41070;50.360;18.742;2024-03-07T00:32:50;99219.82;;;2.50;100.00
55191;BME280;41070;50.360;18.742;2024-03-07T00:35:20;99215.95;;;2.54;100.00
55191;BME280;41070;50.360;18.742;2024-03-07T00:37:46;99216.24;;;2.56;100.00
55191;BME280;41070;50.360;18.742;2024-03-07T00:40:13;99214.81;;;2.59;100.00
55191;BME280;41070;50.360;18.742;2024-03-07T00:42:39;99215.35;;;2.64;100.00
55191;BME280;41070;50.360;18.742;2024-03-07T00:45:06;99212.06;;;2.66;100.00
55191;BME280;41070;50.360;18.742;2024-03-07T00:47:32;99210.80;;;2.65;100.00
55191;BME280;41070;50.360;18.742;2024-03-07T00:49:59;99213.90;;;2.66;100.00
55191;BME280;41070;50.360;18.742;2024-03-07T00:52:25;99210.39;;;2.71;100.00
55191;BME280;41070;50.360;18.742;2024-03-07T00:54:52;99208.80;;;2.72;100.00
55191;BME280;41070;50.360;18.742;2024-03-07T00:57:18;99209.52;;;2.74;100.00
55191;BME280;41070;50.360;18.742;2024-03-07T00:59:45;99205.61;;;2.74;100.00
55191;BME280;41070;50.360;18.742;2024-03-07T01:02:12;99205.88;;;2.74;100.00
55191;BME280;41070;50.360;18.742;2024-03-07T01:04:38;99207.67;;;2.73;100.00
55191;BME280;41070;50.360;18.742;2024-03-07T01:07:08;99203.66;;;2.73;100.00
55191;BME280;41070;50.360;18.742;2024-03-07T01:09:34;99203.88;;;2.73;100.00
55191;BME280;41070;50.360;18.742;2024-03-07T01:12:01;99202.45;;;2.71;100.00
55191;BME280;41070;50.360;18.742;2024-03-07T01:14:30;99206.72;;;2.68;100.00
55191;BME280;41070;50.360;18.742;2024-03-07T01:16:57;99205.30;;;2.65;100.00
55191;BME280;41070;50.360;18.742;2024-03-07T01:19:23;99205.23;;;2.61;100.00
55191;BME280;41070;50.360;18.742;2024-03-07T01:21:54;99203.18;;;2.57;100.00
55191;BME280;41070;50.360;18.742;2024-03-07T01:24:20;99203.36;;;2.53;100.00
55191;BME280;41070;50.360;18.742;2024-03-07T01:26:51;99201.16;;;2.52;100.00
55191;BME280;41070;50.360;18.742;2024-03-07T01:29:18;99197.61;;;2.52;100.00
55191;BME280;41070;50.360;18.742;2024-03-07T01:31:47;99196.20;;;2.50;100.00
55191;BME280;41070;50.360;18.742;2024-03-07T01:34:16;99201.54;;;2.50;100.00
55191;BME280;41070;50.360;18.742;2024-03-07T01:36:44;99202.23;;;2.50;100.00
55191;BME280;41070;50.360;18.742;2024-03-07T01:39:10;99202.96;;;2.49;100.00
55191;BME280;41070;50.360;18.742;2024-03-07T01:41:38;99201.20;;;2.48;100.00
55191;BME280;41070;50.360;18.742;2024-03-07T01:44:06;99205.22;;;2.46;100.00
55191;BME280;41070;50.360;18.742;2024-03-07T01:46:33;99200.70;;;2.40;100.00
55191;BME280;41070;50.360;18.742;2024-03-07T01:49:03;99205.27;;;2.37;100.00
55191;BME280;41070;50.360;18.742;2024-03-07T01:51:29;99202.21;;;2.34;100.00
55191;BME280;41070;50.360;18.742;2024-03-07T01:53:56;99201.83;;;2.28;100.00
55191;BME280;41070;50.360;18.742;2024-03-07T01:56:23;99200.67;;;2.26;100.00
55191;BME280;41070;50.360;18.742;2024-03-07T01:58:53;99194.86;;;2.25;100.00
55191;BME280;41070;50.360;18.742;2024-03-07T02:01:23;99192.80;;;2.25;100.00
55191;BME280;41070;50.360;18.742;2024-03-07T02:03:50;99192.86;;;2.25;100.00
55191;BME280;41070;50.360;18.742;2024-03-07T02:06:16;99189.44;;;2.22;100.00
55191;BME280;41070;50.360;18.742;2024-03-07T02:08:42;99187.08;;;2.19;100.00
55191;BME280;41070;50.360;18.742;2024-03-07T02:11:09;99189.56;;;2.19;100.00
55191;BME280;41070;50.360;18.742;2024-03-07T02:13:36;99188.56;;;2.17;100.00
55191;BME280;41070;50.360;18.742;2024-03-07T02:16:02;99189.91;;;2.16;100.00
55191;BME280;41070;50.360;18.742;2024-03-07T02:18:29;99186.63;;;2.14;100.00
55191;BME280;41070;50.360;18.742;2024-03-07T02:20:59;99188.27;;;2.14;100.00
55191;BME280;41070;50.360;18.742;2024-03-07T02:23:26;99183.73;;;2.15;100.00
55191;BME280;41070;50.360;18.742;2024-03-07T02:25:53;99187.84;;;2.16;100.00
55191;BME280;41070;50.360;18.742;2024-03-07T02:28:19;99186.10;;;2.14;100.00
55191;BME280;41070;50.360;18.742;2024-03-07T02:30:46;99188.84;;;2.14;100.00
55191;BME280;41070;50.360;18.742;2024-03-07T02:33:19;99186.95;;;2.12;100.00
55191;BME280;41070;50.360;18.742;2024-03-07T02:35:45;99187.36;;;2.13;100.00
55191;BME280;41070;50.360;18.742;2024-03-07T02:38:15;99185.79;;;2.12;100.00
55191;BME280;41070;50.360;18.742;2024-03-07T02:40:41;99186.16;;;2.13;100.00
55191;BME280;41070;50.360;18.742;2024-03-07T02:43:07;99183.73;;;2.13;100.00
55191;BME280;41070;50.360;18.742;2024-03-07T02:45:34;99180.30;;;2.11;100.00
55191;BME280;41070;50.360;18.742;2024-03-07T02:48:00;99180.63;;;2.11;100.00
55191;BME280;41070;50.360;18.742;2024-03-07T02:50:30;99176.97;;;2.11;100.00
55191;BME280;41070;50.360;18.742;2024-03-07T02:52:58;99178.35;;;2.12;100.00
55191;BME280;41070;50.360;18.742;2024-03-07T02:55:24;99178.14;;;2.12;100.00
55191;BME280;41070;50.360;18.742;2024-03-07T02:57:52;99183.00;;;2.09;100.00
55191;BME280;41070;50.360;18.742;2024-03-07T03:00:19;99179.38;;;2.06;100.00
55191;BME280;41070;50.360;18.742;2024-03-07T03:02:48;99182.19;;;2.04;100.00
55191;BME280;41070;50.360;18.742;2024-03-07T03:05:16;99184.20;;;2.01;100.00
55191;BME280;41070;50.360;18.742;2024-03-07T03:07:44;99184.05;;;1.99;100.00
55191;BME280;41070;50.360;18.742;2024-03-07T03:10:23;99180.74;;;1.96;100.00
55191;BME280;41070;50.360;18.742;2024-03-07T03:12:52;99183.34;;;1.94;100.00
55191;BME280;41070;50.360;18.742;2024-03-07T03:15:20;99184.35;;;1.92;100.00
55191;BME280;41070;50.360;18.742;2024-03-07T03:17:50;99181.65;;;1.93;100.00
55191;BME280;41070;50.360;18.742;2024-03-07T03:20:17;99186.30;;;1.92;100.00
55191;BME280;41070;50.360;18.742;2024-03-07T03:22:52;99189.64;;;1.91;100.00
55191;BME280;41070;50.360;18.742;2024-03-07T03:25:20;99188.67;;;1.90;100.00
55191;BME280;41070;50.360;18.742;2024-03-07T03:27:47;99189.42;;;1.90;100.00
55191;BME280;41070;50.360;18.742;2024-03-07T03:30:14;99191.07;;;1.88;100.00
55191;BME280;41070;50.360;18.742;2024-03-07T03:32:41;99191.28;;;1.88;100.00
55191;BME280;41070;50.360;18.742;2024-03-07T03:35:08;99190.01;;;1.88;100.00
55191;BME280;41070;50.360;18.742;2024-03-07T03:37:40;99191.54;;;1.87;100.00
55191;BME280;41070;50.360;18.742;2024-03-07T03:40:09;99193.45;;;1.86;100.00
55191;BME280;41070;50.360;18.742;2024-03-07T03:42:37;99192.40;;;1.85;100.00
55191;BME280;41070;50.360;18.742;2024-03-07T03:45:05;99190.40;;;1.83;100.00
55191;BME280;41070;50.360;18.742;2024-03-07T03:47:36;99194.25;;;1.83;100.00
55191;BME280;41070;50.360;18.742;2024-03-07T03:50:12;99195.05;;;1.81;100.00
55191;BME280;41070;50.360;18.742;2024-03-07T03:52:40;99195.27;;;1.77;100.00
55191;BME280;41070;50.360;18.742;2024-03-07T03:55:07;99194.06;;;1.75;100.00
55191;BME280;41070;50.360;18.742;2024-03-07T03:57:39;99197.61;;;1.72;100.00
55191;BME280;41070;50.360;18.742;2024-03-07T04:00:08;99195.29;;;1.69;100.00
55191;BME280;41070;50.360;18.742;2024-03-07T04:02:45;99194.73;;;1.67;100.00
55191;BME280;41070;50.360;18.742;2024-03-07T04:05:15;99194.94;;;1.66;100.00
55191;BME280;41070;50.360;18.742;2024-03-07T04:07:41;99197.70;;;1.64;100.00
55191;BME280;41070;50.360;18.742;2024-03-07T04:10:10;99204.23;;;1.61;100.00
55191;BME280;41070;50.360;18.742;2024-03-07T04:12:40;99206.62;;;1.58;100.00
55191;BME280;41070;50.360;18.742;2024-03-07T04:15:09;99207.04;;;1.57;100.00
55191;BME280;41070;50.360;18.742;2024-03-07T04:17:36;99206.30;;;1.55;100.00
55191;BME280;41070;50.360;18.742;2024-03-07T04:20:06;99207.80;;;1.53;100.00
55191;BME280;41070;50.360;18.742;2024-03-07T04:22:37;99208.80;;;1.52;100.00
55191;BME280;41070;50.360;18.742;2024-03-07T04:25:06;99207.48;;;1.50;100.00
55191;BME280;41070;50.360;18.742;2024-03-07T04:27:33;99210.54;;;1.49;100.00
55191;BME280;41070;50.360;18.742;2024-03-07T04:30:14;99214.97;;;1.47;100.00
55191;BME280;41070;50.360;18.742;2024-03-07T04:32:42;99217.30;;;1.47;100.00
55191;BME280;41070;50.360;18.742;2024-03-07T04:35:09;99221.09;;;1.45;100.00
55191;BME280;41070;50.360;18.742;2024-03-07T04:37:39;99216.71;;;1.43;100.00
55191;BME280;41070;50.360;18.742;2024-03-07T04:40:08;99215.56;;;1.42;100.00
55191;BME280;41070;50.360;18.742;2024-03-07T04:42:45;99216.71;;;1.40;100.00
55191;BME280;41070;50.360;18.742;2024-03-07T04:45:15;99213.77;;;1.36;100.00
55191;BME280;41070;50.360;18.742;2024-03-07T04:47:43;99211.46;;;1.33;100.00
55191;BME280;41070;50.360;18.742;2024-03-07T04:50:10;99211.09;;;1.29;100.00
55191;BME280;41070;50.360;18.742;2024-03-07T04:52:40;99206.45;;;1.24;100.00
55191;BME280;41070;50.360;18.742;2024-03-07T04:55:07;99209.20;;;1.20;100.00
55191;BME280;41070;50.360;18.742;2024-03-07T04:57:37;99214.02;;;1.18;100.00
55191;BME280;41070;50.360;18.742;2024-03-07T05:00:08;99218.55;;;1.15;100.00
55191;BME280;41070;50.360;18.742;2024-03-07T05:02:43;99215.06;;;1.12;100.00
55191;BME280;41070;50.360;18.742;2024-03-07T05:05:11;99218.90;;;1.10;100.00
55191;BME280;41070;50.360;18.742;2024-03-07T05:07:41;99222.48;;;1.08;100.00
55191;BME280;41070;50.360;18.742;2024-03-07T05:10:08;99219.48;;;1.05;100.00
55191;BME280;41070;50.360;18.742;2024-03-07T05:12:34;99218.59;;;1.05;100.00
55191;BME280;41070;50.360;18.742;2024-03-07T05:15:11;99222.59;;;1.04;100.00
55191;BME280;41070;50.360;18.742;2024-03-07T05:17:38;99223.80;;;1.03;100.00
55191;BME280;41070;50.360;18.742;2024-03-07T05:20:06;99218.86;;;1.02;100.00
55191;BME280;41070;50.360;18.742;2024-03-07T05:22:36;99224.54;;;1.01;100.00
55191;BME280;41070;50.360;18.742;2024-03-07T05:25:06;99225.08;;;0.99;100.00
55191;BME280;41070;50.360;18.742;2024-03-07T05:27:33;99223.45;;;1.00;100.00
55191;BME280;41070;50.360;18.742;2024-03-07T05:30:02;99222.49;;;1.02;100.00
55191;BME280;41070;50.360;18.742;2024-03-07T05:32:31;99223.39;;;1.00;100.00
55191;BME280;41070;50.360;18.742;2024-03-07T05:35:00;99234.25;;;1.00;100.00
55191;BME280;41070;50.360;18.742;2024-03-07T05:37:31;99233.41;;;1.01;100.00
55191;BME280;41070;50.360;18.742;2024-03-07T05:39:58;99234.19;;;1.04;100.00
55191;BME280;41070;50.360;18.742;2024-03-07T05:42:34;99234.87;;;1.03;100.00
55191;BME280;41070;50.360;18.742;2024-03-07T05:45:00;99238.30;;;1.02;100.00
55191;BME280;41070;50.360;18.742;2024-03-07T05:47:27;99239.09;;;1.03;100.00
55191;BME280;41070;50.360;18.742;2024-03-07T05:49:53;99243.48;;;1.04;100.00
55191;BME280;41070;50.360;18.742;2024-03-07T05:52:20;99241.37;;;1.06;100.00
55191;BME280;41070;50.360;18.742;2024-03-07T05:54:52;99244.27;;;1.04;100.00
55191;BME280;41070;50.360;18.742;2024-03-07T05:57:26;99243.52;;;1.03;100.00
55191;BME280;41070;50.360;18.742;2024-03-07T05:59:52;99246.27;;;1.08;100.00
55191;BME280;41070;50.360;18.742;2024-03-07T06:02:19;99248.38;;;1.08;100.00
55191;BME280;41070;50.360;18.742;2024-03-07T06:04:46;99247.33;;;1.09;100.00
55191;BME280;41070;50.360;18.742;2024-03-07T06:07:12;99251.17;;;1.10;100.00
55191;BME280;41070;50.360;18.742;2024-03-07T06:09:38;99252.27;;;1.11;100.00
55191;BME280;41070;50.360;18.742;2024-03-07T06:12:05;99254.60;;;1.11;100.00
55191;BME280;41070;50.360;18.742;2024-03-07T06:14:34;99257.92;;;1.14;100.00
55191;BME280;41070;50.360;18.742;2024-03-07T06:17:01;99261.45;;;1.17;100.00
55191;BME280;41070;50.360;18.742;2024-03-07T06:19:27;99261.92;;;1.19;100.00
55191;BME280;41070;50.360;18.742;2024-03-07T06:21:54;99261.83;;;1.20;100.00
55191;BME280;41070;50.360;18.742;2024-03-07T06:24:23;99264.16;;;1.20;100.00
55191;BME280;41070;50.360;18.742;2024-03-07T06:26:49;99264.19;;;1.15;100.00
55191;BME280;41070;50.360;18.742;2024-03-07T06:29:25;99263.36;;;1.13;100.00
55191;BME280;41070;50.360;18.742;2024-03-07T06:31:52;99266.73;;;1.15;100.00
55191;BME280;41070;50.360;18.742;2024-03-07T06:34:45;99264.88;;;1.16;100.00
55191;BME280;41070;50.360;18.742;2024-03-07T06:37:12;99270.63;;;1.13;100.00
55191;BME280;41070;50.360;18.742;2024-03-07T06:39:39;99268.94;;;1.12;99.96
55191;BME280;41070;50.360;18.742;2024-03-07T06:42:06;99271.52;;;1.12;100.00
55191;BME280;41070;50.360;18.742;2024-03-07T06:44:32;99268.41;;;1.14;100.00
55191;BME280;41070;50.360;18.742;2024-03-07T06:46:58;99269.94;;;1.17;100.00
55191;BME280;41070;50.360;18.742;2024-03-07T06:49:25;99271.79;;;1.20;100.00
55191;BME280;41070;50.360;18.742;2024-03-07T06:52:02;99271.06;;;1.24;100.00
55191;BME280;41070;50.360;18.742;2024-03-07T06:54:29;99271.73;;;1.25;99.97
55191;BME280;41070;50.360;18.742;2024-03-07T06:56:55;99273.48;;;1.25;99.99
55191;BME280;41070;50.360;18.742;2024-03-07T06:59:21;99275.64;;;1.24;99.97
55191;BME280;41070;50.360;18.742;2024-03-07T07:01:54;99268.67;;;1.27;100.00
55191;BME280;41070;50.360;18.742;2024-03-07T07:04:46;99273.21;;;1.35;100.00
55191;BME280;41070;50.360;18.742;2024-03-07T07:08:40;99272.73;;;1.39;99.80
55191;BME280;41070;50.360;18.742;2024-03-07T07:11:07;99275.64;;;1.41;99.75
55191;BME280;41070;50.360;18.742;2024-03-07T07:13:33;99272.94;;;1.41;99.36
55191;BME280;41070;50.360;18.742;2024-03-07T07:16:00;99274.31;;;1.46;99.47
55191;BME280;41070;50.360;18.742;2024-03-07T07:18:28;99269.02;;;1.46;99.13
55191;BME280;41070;50.360;18.742;2024-03-07T07:20:54;99272.84;;;1.50;99.01
55191;BME280;41070;50.360;18.742;2024-03-07T07:23:22;99271.20;;;1.52;99.11
55191;BME280;41070;50.360;18.742;2024-03-07T07:25:49;99267.61;;;1.52;98.06
55191;BME280;41070;50.360;18.742;2024-03-07T07:28:16;99268.67;;;1.50;98.35
55191;BME280;41070;50.360;18.742;2024-03-07T07:30:42;99267.45;;;1.57;99.07
55191;BME280;41070;50.360;18.742;2024-03-07T07:33:09;99267.60;;;1.61;98.29
55191;BME280;41070;50.360;18.742;2024-03-07T07:35:35;99267.27;;;1.65;98.24
55191;BME280;41070;50.360;18.742;2024-03-07T07:38:02;99266.02;;;1.64;97.50
55191;BME280;41070;50.360;18.742;2024-03-07T07:40:29;99266.64;;;1.65;97.30
55191;BME280;41070;50.360;18.742;2024-03-07T07:42:57;99266.70;;;1.71;97.34
55191;BME280;41070;50.360;18.742;2024-03-07T07:45:23;99264.20;;;1.80;97.66
55191;BME280;41070;50.360;18.742;2024-03-07T07:47:51;99265.64;;;1.89;97.72
55191;BME280;41070;50.360;18.742;2024-03-07T07:50:23;99262.04;;;1.94;97.57
55191;BME280;41070;50.360;18.742;2024-03-07T07:52:54;99263.08;;;2.00;97.89
55191;BME280;41070;50.360;18.742;2024-03-07T07:55:23;99258.47;;;2.06;97.75
55191;BME280;41070;50.360;18.742;2024-03-07T07:57:52;99266.80;;;2.07;97.02
55191;BME280;41070;50.360;18.742;2024-03-07T08:00:20;99268.20;;;2.02;96.99
55191;BME280;41070;50.360;18.742;2024-03-07T08:02:59;99270.30;;;2.02;97.16
55191;BME280;41070;50.360;18.742;2024-03-07T08:05:28;99270.86;;;1.97;96.72
55191;BME280;41070;50.360;18.742;2024-03-07T08:07:56;99267.94;;;1.95;97.00
55191;BME280;41070;50.360;18.742;2024-03-07T08:10:25;99270.52;;;2.01;97.09
55191;BME280;41070;50.360;18.742;2024-03-07T08:12:58;99269.95;;;2.01;96.16
55191;BME280;41070;50.360;18.742;2024-03-07T08:15:26;99274.44;;;1.99;95.85
55191;BME280;41070;50.360;18.742;2024-03-07T08:17:54;99274.45;;;1.99;95.79
55191;BME280;41070;50.360;18.742;2024-03-07T08:20:22;99272.95;;;2.03;96.37
55191;BME280;41070;50.360;18.742;2024-03-07T08:22:50;99277.63;;;2.09;95.68
55191;BME280;41070;50.360;18.742;2024-03-07T08:25:22;99273.96;;;2.15;96.31
55191;BME280;41070;50.360;18.742;2024-03-07T08:27:51;99277.94;;;2.27;96.14
55191;BME280;41070;50.360;18.742;2024-03-07T08:30:18;99282.85;;;2.38;96.67
55191;BME280;41070;50.360;18.742;2024-03-07T08:32:47;99285.41;;;2.42;95.95
55191;BME280;41070;50.360;18.742;2024-03-07T08:35:13;99286.85;;;2.42;95.88
55191;BME280;41070;50.360;18.742;2024-03-07T08:37:43;99286.67;;;2.46;96.05
55191;BME280;41070;50.360;18.742;2024-03-07T08:40:10;99288.83;;;2.50;95.93
55191;BME280;41070;50.360;18.742;2024-03-07T08:42:40;99289.90;;;2.56;95.41
55191;BME280;41070;50.360;18.742;2024-03-07T08:45:25;99290.81;;;2.54;95.40
55191;BME280;41070;50.360;18.742;2024-03-07T08:47:54;99293.48;;;2.60;95.46
55191;BME280;41070;50.360;18.742;2024-03-07T08:50:20;99298.63;;;2.57;94.61
55191;BME280;41070;50.360;18.742;2024-03-07T08:52:48;99300.02;;;2.55;94.98
55191;BME280;41070;50.360;18.742;2024-03-07T08:55:24;99302.27;;;2.58;94.76
55191;BME280;41070;50.360;18.742;2024-03-07T08:57:51;99298.46;;;2.56;94.52
55191;BME280;41070;50.360;18.742;2024-03-07T09:00:18;99302.98;;;2.62;95.00
55191;BME280;41070;50.360;18.742;2024-03-07T09:02:52;99306.95;;;2.61;94.88
55191;BME280;41070;50.360;18.742;2024-03-07T09:05:20;99303.48;;;2.55;94.75
55191;BME280;41070;50.360;18.742;2024-03-07T09:07:49;99307.08;;;2.56;94.86
55191;BME280;41070;50.360;18.742;2024-03-07T09:10:16;99308.88;;;2.53;94.43
55191;BME280;41070;50.360;18.742;2024-03-07T09:12:44;99306.80;;;2.50;94.52
55191;BME280;41070;50.360;18.742;2024-03-07T09:15:10;99309.61;;;2.43;93.60
55191;BME280;41070;50.360;18.742;2024-03-07T09:17:38;99310.50;;;2.33;93.68
55191;BME280;41070;50.360;18.742;2024-03-07T09:20:05;99313.70;;;2.25;93.24
55191;BME280;41070;50.360;18.742;2024-03-07T09:22:32;99313.45;;;2.18;93.44
55191;BME280;41070;50.360;18.742;2024-03-07T09:24:59;99315.36;;;2.11;93.10
55191;BME280;41070;50.360;18.742;2024-03-07T09:27:25;99315.16;;;2.07;93.60
55191;BME280;41070;50.360;18.742;2024-03-07T09:29:51;99315.64;;;2.07;93.68
55191;BME280;41070;50.360;18.742;2024-03-07T09:32:18;99321.45;;;2.07;93.42
55191;BME280;41070;50.360;18.742;2024-03-07T09:34:50;99318.43;;;2.11;94.59
55191;BME280;41070;50.360;18.742;2024-03-07T09:37:16;99321.33;;;2.15;94.04
55191;BME280;41070;50.360;18.742;2024-03-07T09:39:43;99319.53;;;2.17;94.44
55191;BME280;41070;50.360;18.742;2024-03-07T09:42:12;99320.74;;;2.19;94.00
55191;BME280;41070;50.360;18.742;2024-03-07T09:44:42;99321.48;;;2.20;94.36
55191;BME280;41070;50.360;18.742;2024-03-07T09:47:10;99322.02;;;2.24;94.40
55191;BME280;41070;50.360;18.742;2024-03-07T09:49:37;99327.52;;;2.29;94.46
55191;BME280;41070;50.360;18.742;2024-03-07T09:52:06;99325.88;;;2.30;94.17
55191;BME280;41070;50.360;18.742;2024-03-07T09:54:34;99326.67;;;2.31;93.97
55191;BME280;41070;50.360;18.742;2024-03-07T09:57:02;99325.94;;;2.30;93.95
55191;BME280;41070;50.360;18.742;2024-03-07T09:59:32;99324.17;;;2.34;94.08
55191;BME280;41070;50.360;18.742;2024-03-07T10:02:03;99327.73;;;2.35;93.82
55191;BME280;41070;50.360;18.742;2024-03-07T10:04:38;99331.35;;;2.39;94.03
55191;BME280;41070;50.360;18.742;2024-03-07T10:07:11;99335.58;;;2.52;94.33
55191;BME280;41070;50.360;18.742;2024-03-07T10:09:39;99332.10;;;2.62;94.38
55191;BME280;41070;50.360;18.742;2024-03-07T10:12:08;99334.30;;;2.66;93.98
55191;BME280;41070;50.360;18.742;2024-03-07T10:14:35;99332.54;;;2.71;93.87
55191;BME280;41070;50.360;18.742;2024-03-07T10:17:03;99335.89;;;2.78;93.80
55191;BME280;41070;50.360;18.742;2024-03-07T10:19:29;99334.87;;;2.80;93.66
55191;BME280;41070;50.360;18.742;2024-03-07T10:21:56;99331.75;;;2.80;93.54
55191;BME280;41070;50.360;18.742;2024-03-07T10:24:27;99328.05;;;2.82;93.45
55191;BME280;41070;50.360;18.742;2024-03-07T10:26:54;99327.91;;;2.86;93.21
55191;BME280;41070;50.360;18.742;2024-03-07T10:29:24;99329.42;;;2.90;92.87
55191;BME280;41070;50.360;18.742;2024-03-07T10:31:50;99324.64;;;2.94;92.40
55191;BME280;41070;50.360;18.742;2024-03-07T10:34:17;99325.39;;;2.94;92.04
55191;BME280;41070;50.360;18.742;2024-03-07T10:36:44;99330.80;;;2.93;91.98
55191;BME280;41070;50.360;18.742;2024-03-07T10:39:11;99328.45;;;2.94;92.14
55191;BME280;41070;50.360;18.742;2024-03-07T10:41:48;99329.31;;;3.00;92.36
55191;BME280;41070;50.360;18.742;2024-03-07T10:44:20;99331.01;;;3.07;92.51
55191;BME280;41070;50.360;18.742;2024-03-07T10:46:55;99325.06;;;3.13;92.26
55191;BME280;41070;50.360;18.742;2024-03-07T10:49:26;99322.88;;;3.15;91.89
55191;BME280;41070;50.360;18.742;2024-03-07T10:52:13;99320.48;;;3.11;91.15
55191;BME280;41070;50.360;18.742;2024-03-07T10:55:10;99317.04;;;3.10;90.76
55191;BME280;41070;50.360;18.742;2024-03-07T10:57:49;99321.26;;;3.12;91.07
55191;BME280;41070;50.360;18.742;2024-03-07T11:00:17;99326.27;;;3.13;90.80
55191;BME280;41070;50.360;18.742;2024-03-07T11:03:02;99328.22;;;3.06;90.40
55191;BME280;41070;50.360;18.742;2024-03-07T11:05:33;99324.59;;;3.04;90.95
55191;BME280;41070;50.360;18.742;2024-03-07T11:08:19;99322.18;;;3.16;91.34
55191;BME280;41070;50.360;18.742;2024-03-07T11:10:47;99322.45;;;3.24;91.42
55191;BME280;41070;50.360;18.742;2024-03-07T11:13:15;99319.98;;;3.27;91.09
55191;BME280;41070;50.360;18.742;2024-03-07T11:15:46;99322.54;;;3.26;90.87
55191;BME280;41070;50.360;18.742;2024-03-07T11:18:15;99319.17;;;3.30;91.13
55191;BME280;41070;50.360;18.742;2024-03-07T11:20:43;99318.15;;;3.33;90.70
55191;BME280;41070;50.360;18.742;2024-03-07T11:23:26;99320.81;;;3.30;90.38
55191;BME280;41070;50.360;18.742;2024-03-07T11:26:00;99318.52;;;3.33;90.67
55191;BME280;41070;50.360;18.742;2024-03-07T11:28:30;99321.63;;;3.35;90.41
55191;BME280;41070;50.360;18.742;2024-03-07T11:33:37;99320.63;;;3.33;90.14
55191;BME280;41070;50.360;18.742;2024-03-07T11:36:08;99323.33;;;3.27;89.80
55191;BME280;41070;50.360;18.742;2024-03-07T11:38:36;99318.76;;;3.23;89.97
55191;BME280;41070;50.360;18.742;2024-03-07T11:41:04;99317.83;;;3.20;89.79
55191;BME280;41070;50.360;18.742;2024-03-07T11:43:35;99316.84;;;3.17;89.89
55191;BME280;41070;50.360;18.742;2024-03-07T11:46:03;99314.94;;;3.16;90.05
55191;BME280;41070;50.360;18.742;2024-03-07T11:48:43;99313.11;;;3.19;90.15
55191;BME280;41070;50.360;18.742;2024-03-07T11:51:18;99308.73;;;3.24;90.68
55191;BME280;41070;50.360;18.742;2024-03-07T11:53:48;99308.41;;;3.25;90.48
55191;BME280;41070;50.360;18.742;2024-03-07T11:56:18;99313.90;;;3.26;90.43
55191;BME280;41070;50.360;18.742;2024-03-07T11:58:45;99312.17;;;3.25;90.00
55191;BME280;41070;50.360;18.742;2024-03-07T12:01:21;99311.58;;;3.27;90.33
55191;BME280;41070;50.360;18.742;2024-03-07T12:03:51;99311.68;;;3.26;89.10
55191;BME280;41070;50.360;18.742;2024-03-07T12:06:19;99313.07;;;3.26;89.35
55191;BME280;41070;50.360;18.742;2024-03-07T12:08:47;99309.59;;;3.33;89.14
55191;BME280;41070;50.360;18.742;2024-03-07T12:11:15;99307.77;;;3.42;89.54
55191;BME280;41070;50.360;18.742;2024-03-07T12:13:44;99307.69;;;3.51;88.99
55191;BME280;41070;50.360;18.742;2024-03-07T12:16:13;99308.74;;;3.57;89.13
55191;BME280;41070;50.360;18.742;2024-03-07T12:18:42;99309.67;;;3.65;88.79
55191;BME280;41070;50.360;18.742;2024-03-07T12:21:10;99306.73;;;3.63;88.26
55191;BME280;41070;50.360;18.742;2024-03-07T12:23:39;99303.70;;;3.59;88.05
55191;BME280;41070;50.360;18.742;2024-03-07T12:26:07;99307.77;;;3.59;87.79
55191;BME280;41070;50.360;18.742;2024-03-07T12:28:45;99305.86;;;3.65;88.29
55191;BME280;41070;50.360;18.742;2024-03-07T12:31:13;99304.11;;;3.68;88.35
55191;BME280;41070;50.360;18.742;2024-03-07T12:33:43;99304.33;;;3.77;88.58
55191;BME280;41070;50.360;18.742;2024-03-07T12:36:13;99302.42;;;3.84;88.11
55191;BME280;41070;50.360;18.742;2024-03-07T12:38:42;99304.65;;;3.88;86.99
55191;BME280;41070;50.360;18.742;2024-03-07T12:41:10;99306.91;;;3.84;85.70
55191;BME280;41070;50.360;18.742;2024-03-07T12:43:41;99305.86;;;3.84;85.83
55191;BME280;41070;50.360;18.742;2024-03-07T21:11:23;99357.27;;;0.82;85.48
55191;BME280;41070;50.360;18.742;2024-03-07T21:28:10;99352.45;;;1.16;85.22
55191;BME280;41070;50.360;18.742;2024-03-07T21:34:55;99344.01;;;0.88;85.13
55191;BME280;41070;50.360;18.742;2024-03-07T21:37:48;99346.83;;;0.81;85.69
55191;BME280;41070;50.360;18.742;2024-03-07T21:40:21;99348.04;;;0.75;85.30
55191;BME280;41070;50.360;18.742;2024-03-07T21:43:23;99343.27;;;0.70;85.48
55191;BME280;41070;50.360;18.742;2024-03-07T21:45:54;99338.03;;;0.61;85.51
55191;BME280;41070;50.360;18.742;2024-03-07T21:48:45;99339.27;;;0.56;85.71
55191;BME280;41070;50.360;18.742;2024-03-07T21:51:33;99337.89;;;0.52;86.08
55191;BME280;41070;50.360;18.742;2024-03-07T21:54:26;99338.35;;;0.50;85.94